createdAt,value
2018-12-24T00:00:55.908Z,99.99
2018-12-24T00:01:55.900Z,99.99
2018-12-24T00:02:55.885Z,99.99
2018-12-24T00:03:55.876Z,99.99
2018-12-24T00:04:55.864Z,99.99
2018-12-24T00:05:55.852Z,99.99
2018-12-24T00:06:55.845Z,99.99
2018-12-24T00:07:55.835Z,99.99
2018-12-24T00:08:55.820Z,99.99
2018-12-24T00:09:55.809Z,99.99
2018-12-24T00:10:55.805Z,99.99
2018-12-24T00:11:55.790Z,99.99
2018-12-24T00:12:55.777Z,99.99
2018-12-24T00:13:55.769Z,99.99
2018-12-24T00:14:55.758Z,99.99
2018-12-24T00:15:55.748Z,99.99
2018-12-24T00:16:55.735Z,99.99
2018-12-24T00:17:55.727Z,99.99
2018-12-24T00:18:55.716Z,99.99
2018-12-24T00:19:55.702Z,99.99
2018-12-24T00:20:55.694Z,99.99
2018-12-24T00:21:55.688Z,99.99
2018-12-24T00:22:55.672Z,99.99
2018-12-24T00:23:55.659Z,99.99
2018-12-24T00:24:55.651Z,99.99
2018-12-24T00:25:55.640Z,99.99
2018-12-24T00:26:55.686Z,99.99
2018-12-24T00:27:55.620Z,99.99
2018-12-24T00:28:55.608Z,99.99
2018-12-24T00:29:55.685Z,99.99
2018-12-24T00:30:55.589Z,99.99
2018-12-24T00:31:55.575Z,99.99
2018-12-24T00:32:55.566Z,99.99
2018-12-24T00:33:55.554Z,99.99
2018-12-24T00:34:55.543Z,99.99
2018-12-24T00:35:55.532Z,99.99
2018-12-24T00:36:55.523Z,99.99
2018-12-24T00:37:55.512Z,99.99
2018-12-24T00:38:55.501Z,99.99
2018-12-24T00:39:55.493Z,99.99
2018-12-24T00:40:55.481Z,99.99
2018-12-24T00:41:55.469Z,99.99
2018-12-24T00:42:55.460Z,99.99
2018-12-24T00:43:55.449Z,99.99
2018-12-24T00:44:55.441Z,99.99
2018-12-24T00:45:55.429Z,99.99
2018-12-24T00:46:55.420Z,99.99
2018-12-24T00:47:55.441Z,99.99
2018-12-24T00:48:55.394Z,99.99
2018-12-24T00:49:55.383Z,99.99
2018-12-24T00:50:55.374Z,99.99
2018-12-24T00:51:55.366Z,99.99
2018-12-24T00:52:55.352Z,99.99
2018-12-24T00:53:55.342Z,99.99
2018-12-24T00:54:55.330Z,99.99
2018-12-24T00:55:55.326Z,99.99
2018-12-24T00:56:55.316Z,99.99
2018-12-24T00:57:55.300Z,99.99
2018-12-24T00:58:55.288Z,99.99
2018-12-24T00:59:55.279Z,99.99
2018-12-24T01:00:55.269Z,99.86
2018-12-24T01:01:55.257Z,99.44
2018-12-24T01:02:55.245Z,99.86
2018-12-24T01:03:55.236Z,99.86
2018-12-24T01:04:55.226Z,99.65
2018-12-24T01:05:55.214Z,99.55
2018-12-24T01:06:55.204Z,99.65
2018-12-24T01:07:55.194Z,99.65
2018-12-24T01:08:55.188Z,99.28
2018-12-24T01:09:55.171Z,98.76
2018-12-24T01:10:55.255Z,98.61
2018-12-24T01:11:55.163Z,98.41
2018-12-24T01:12:55.139Z,97.93
2018-12-24T01:13:55.131Z,96.79
2018-12-24T01:14:55.118Z,97.06
2018-12-24T01:15:55.109Z,97.10
2018-12-24T01:16:55.098Z,96.89
2018-12-24T01:17:55.086Z,97.10
2018-12-24T01:18:55.078Z,96.17
2018-12-24T01:19:55.065Z,96.48
2018-12-24T01:20:55.057Z,96.17
2018-12-24T01:21:55.048Z,96.06
2018-12-24T01:22:55.035Z,96.48
2018-12-24T01:23:55.025Z,96.27
2018-12-24T01:24:55.012Z,96.37
2018-12-24T01:25:55.004Z,95.96
2018-12-24T01:26:54.993Z,96.06
2018-12-24T01:27:54.980Z,96.27
2018-12-24T01:28:54.974Z,96.27
2018-12-24T01:29:54.959Z,95.90
2018-12-24T01:30:54.949Z,97.14
2018-12-24T01:31:54.941Z,96.37
2018-12-24T01:32:54.929Z,96.94
2018-12-24T01:33:54.917Z,97.04
2018-12-24T01:34:54.908Z,96.89
2018-12-24T01:35:54.896Z,97.31
2018-12-24T01:36:54.885Z,97.31
2018-12-24T01:37:54.876Z,97.00
2018-12-24T01:38:54.969Z,96.21
2018-12-24T01:39:54.857Z,96.06
2018-12-24T01:40:54.845Z,96.31
2018-12-24T01:41:54.842Z,96.79
2018-12-24T01:42:54.822Z,97.35
2018-12-24T01:43:54.811Z,97.35
2018-12-24T01:44:54.801Z,96.89
2018-12-24T01:45:54.792Z,97.35
2018-12-24T01:46:54.782Z,97.20
2018-12-24T01:47:54.768Z,97.41
2018-12-24T01:48:54.763Z,96.83
2018-12-24T01:49:54.747Z,97.41
2018-12-24T01:50:54.737Z,97.14
2018-12-24T01:51:54.727Z,96.27
2018-12-24T01:52:54.715Z,95.65
2018-12-24T01:53:54.708Z,95.34
2018-12-24T01:54:54.702Z,95.86
2018-12-24T01:55:54.683Z,95.59
2018-12-24T01:56:54.677Z,95.75
2018-12-24T01:57:54.666Z,95.38
2018-12-24T01:58:54.652Z,95.69
2018-12-24T01:59:54.641Z,95.48
2018-12-24T02:00:54.630Z,95.48
2018-12-24T02:01:54.620Z,95.96
2018-12-24T02:02:54.613Z,95.90
2018-12-24T02:03:54.599Z,95.69
2018-12-24T02:04:54.588Z,95.69
2018-12-24T02:05:54.579Z,95.90
2018-12-24T02:06:54.568Z,95.59
2018-12-24T02:07:54.555Z,95.59
2018-12-24T02:08:54.551Z,96.00
2018-12-24T02:09:54.537Z,95.90
2018-12-24T02:10:54.528Z,95.59
2018-12-24T02:11:54.519Z,96.25
2018-12-24T02:12:54.504Z,96.21
2018-12-24T02:13:54.494Z,96.62
2018-12-24T02:14:54.490Z,97.14
2018-12-24T02:15:54.482Z,96.88
2018-12-24T02:16:54.461Z,96.88
2018-12-24T02:17:54.454Z,96.42
2018-12-24T02:18:54.441Z,97.35
2018-12-24T02:19:54.429Z,97.50
2018-12-24T02:20:54.421Z,97.25
2018-12-24T02:21:54.408Z,97.35
2018-12-24T02:22:54.400Z,97.04
2018-12-24T02:23:54.387Z,96.52
2018-12-24T02:24:54.379Z,95.38
2018-12-24T02:25:54.365Z,95.84
2018-12-24T02:26:54.355Z,95.84
2018-12-24T02:27:54.345Z,95.90
2018-12-24T02:28:54.335Z,95.63
2018-12-24T02:29:54.324Z,95.63
2018-12-24T02:30:54.314Z,95.79
2018-12-24T02:31:54.303Z,96.47
2018-12-24T02:32:54.295Z,95.90
2018-12-24T02:33:54.429Z,95.73
2018-12-24T02:34:54.271Z,95.84
2018-12-24T02:35:54.260Z,95.94
2018-12-24T02:36:54.252Z,96.15
2018-12-24T02:37:54.241Z,95.53
2018-12-24T02:38:54.229Z,95.59
2018-12-24T02:39:54.219Z,95.94
2018-12-24T02:40:54.207Z,95.73
2018-12-24T02:41:54.197Z,95.73
2018-12-24T02:42:54.191Z,95.63
2018-12-24T02:43:54.177Z,95.63
2018-12-24T02:44:54.166Z,95.84
2018-12-24T02:45:54.156Z,95.32
2018-12-24T02:46:54.156Z,95.11
2018-12-24T02:47:54.135Z,95.11
2018-12-24T02:48:54.126Z,95.84
2018-12-24T02:49:54.116Z,95.63
2018-12-24T02:50:54.103Z,95.63
2018-12-24T02:51:54.089Z,95.42
2018-12-24T02:52:54.086Z,95.21
2018-12-24T02:53:54.068Z,95.63
2018-12-24T02:54:54.070Z,95.53
2018-12-24T02:55:54.056Z,95.73
2018-12-24T02:56:54.038Z,95.73
2018-12-24T02:57:54.028Z,95.63
2018-12-24T02:58:54.017Z,96.04
2018-12-24T02:59:54.008Z,95.53
2018-12-24T03:00:53.996Z,95.84
2018-12-24T03:01:53.985Z,96.36
2018-12-24T03:02:53.974Z,96.41
2018-12-24T03:03:53.962Z,95.73
2018-12-24T03:04:53.952Z,95.94
2018-12-24T03:05:53.943Z,95.73
2018-12-24T03:06:53.932Z,95.84
2018-12-24T03:07:53.920Z,95.21
2018-12-24T03:08:53.912Z,94.59
2018-12-24T03:09:53.899Z,94.70
2018-12-24T03:10:53.889Z,94.28
2018-12-24T03:11:53.879Z,94.59
2018-12-24T03:13:02.565Z,94.80
2018-12-24T03:13:54.856Z,93.55
2018-12-24T03:14:53.853Z,94.01
2018-12-24T03:15:53.840Z,93.66
2018-12-24T03:16:53.827Z,93.49
2018-12-24T03:17:53.815Z,93.70
2018-12-24T03:18:53.805Z,94.64
2018-12-24T03:19:53.798Z,94.22
2018-12-24T03:20:53.784Z,94.64
2018-12-24T03:21:53.775Z,95.05
2018-12-24T03:22:53.763Z,94.80
2018-12-24T03:23:53.757Z,95.53
2018-12-24T03:24:53.744Z,95.67
2018-12-24T03:25:53.730Z,95.67
2018-12-24T03:26:53.724Z,95.26
2018-12-24T03:27:53.708Z,95.67
2018-12-24T03:28:53.699Z,95.89
2018-12-24T03:29:53.692Z,95.99
2018-12-24T03:30:53.683Z,95.89
2018-12-24T03:31:53.685Z,95.67
2018-12-24T03:32:53.667Z,95.78
2018-12-24T03:33:53.644Z,95.67
2018-12-24T03:34:53.636Z,95.57
2018-12-24T03:35:53.625Z,95.36
2018-12-24T03:36:53.620Z,95.26
2018-12-24T03:37:53.603Z,95.67
2018-12-24T03:38:53.594Z,95.67
2018-12-24T03:39:53.584Z,95.47
2018-12-24T03:40:53.569Z,95.57
2018-12-24T03:41:53.560Z,95.89
2018-12-24T03:42:53.551Z,95.67
2018-12-24T03:43:53.542Z,95.67
2018-12-24T03:44:53.533Z,95.78
2018-12-24T03:45:53.517Z,95.99
2018-12-24T03:46:53.512Z,95.99
2018-12-24T03:47:53.496Z,96.14
2018-12-24T03:48:53.486Z,95.93
2018-12-24T03:49:53.475Z,96.24
2018-12-24T03:50:53.468Z,96.97
2018-12-24T03:51:53.453Z,97.28
2018-12-24T03:52:53.452Z,97.28
2018-12-24T03:53:53.441Z,96.97
2018-12-24T03:54:53.428Z,96.97
2018-12-24T03:55:53.419Z,97.38
2018-12-24T03:56:53.401Z,97.03
2018-12-24T03:57:53.398Z,97.17
2018-12-24T03:58:53.384Z,97.59
2018-12-24T03:59:53.371Z,97.49
2018-12-24T04:00:53.362Z,98.32
2018-12-24T04:01:53.349Z,98.01
2018-12-24T04:02:53.343Z,97.91
2018-12-24T04:03:53.327Z,98.74
2018-12-24T04:04:53.322Z,97.91
2018-12-24T04:05:53.309Z,97.91
2018-12-24T04:06:53.296Z,98.53
2018-12-24T04:07:53.286Z,98.53
2018-12-24T04:08:53.275Z,98.43
2018-12-24T04:09:53.261Z,98.53
2018-12-24T04:10:53.254Z,98.32
2018-12-24T04:11:53.242Z,98.11
2018-12-24T04:12:53.230Z,97.59
2018-12-24T04:13:53.224Z,97.49
2018-12-24T04:14:53.210Z,97.59
2018-12-24T04:15:53.201Z,98.53
2018-12-24T04:16:53.189Z,98.63
2018-12-24T04:17:53.182Z,98.53
2018-12-24T04:18:53.168Z,98.53
2018-12-24T04:19:53.158Z,98.74
2018-12-24T04:20:53.148Z,97.64
2018-12-24T04:21:53.136Z,96.03
2018-12-24T04:22:53.124Z,96.08
2018-12-24T04:23:53.114Z,96.08
2018-12-24T04:24:53.109Z,95.97
2018-12-24T04:25:53.099Z,93.62
2018-12-24T04:26:53.083Z,93.41
2018-12-24T04:27:53.073Z,93.31
2018-12-24T04:28:53.065Z,93.77
2018-12-24T04:29:53.054Z,92.72
2018-12-24T04:30:53.040Z,93.14
2018-12-24T04:31:53.028Z,93.93
2018-12-24T04:32:53.019Z,94.81
2018-12-24T04:33:53.012Z,94.70
2018-12-24T04:34:53.000Z,94.81
2018-12-24T04:35:52.988Z,95.02
2018-12-24T04:36:52.976Z,94.49
2018-12-24T04:37:52.969Z,93.77
2018-12-24T04:38:52.957Z,94.70
2018-12-24T04:39:52.944Z,93.66
2018-12-24T04:40:52.937Z,93.83
2018-12-24T04:41:52.928Z,93.56
2018-12-24T04:42:52.919Z,92.89
2018-12-24T04:43:52.903Z,92.62
2018-12-24T04:44:52.893Z,92.41
2018-12-24T04:45:52.885Z,92.72
2018-12-24T04:46:52.872Z,91.89
2018-12-24T04:47:52.863Z,92.00
2018-12-24T04:48:52.851Z,91.89
2018-12-24T04:49:52.840Z,91.47
2018-12-24T04:50:52.830Z,91.37
2018-12-24T04:51:52.819Z,91.68
2018-12-24T04:52:52.818Z,92.21
2018-12-24T04:53:52.804Z,92.21
2018-12-24T04:54:52.789Z,91.78
2018-12-24T04:55:52.783Z,91.68
2018-12-24T04:56:52.764Z,92.00
2018-12-24T04:57:52.758Z,91.78
2018-12-24T04:58:52.745Z,92.31
2018-12-24T04:59:52.745Z,92.00
2018-12-24T05:00:52.724Z,92.52
2018-12-24T05:01:52.714Z,92.41
2018-12-24T05:02:52.704Z,92.31
2018-12-24T05:03:52.694Z,93.77
2018-12-24T05:04:52.685Z,93.66
2018-12-24T05:05:52.674Z,93.40
2018-12-24T05:06:52.659Z,93.66
2018-12-24T05:07:52.650Z,94.08
2018-12-24T05:08:52.640Z,93.56
2018-12-24T05:09:52.629Z,93.87
2018-12-24T05:10:52.622Z,94.60
2018-12-24T05:11:52.606Z,94.96
2018-12-24T05:12:52.597Z,94.85
2018-12-24T05:13:52.587Z,94.64
2018-12-24T05:14:52.575Z,95.06
2018-12-24T05:15:52.566Z,95.06
2018-12-24T05:16:52.555Z,94.92
2018-12-24T05:17:52.546Z,94.54
2018-12-24T05:18:52.536Z,94.81
2018-12-24T05:19:52.523Z,94.96
2018-12-24T05:20:52.519Z,95.48
2018-12-24T05:21:52.502Z,96.11
2018-12-24T05:22:52.490Z,94.96
2018-12-24T05:23:52.481Z,94.12
2018-12-24T05:24:52.470Z,93.91
2018-12-24T05:25:52.460Z,93.87
2018-12-24T05:26:52.452Z,93.81
2018-12-24T05:27:52.439Z,93.81
2018-12-24T05:28:52.433Z,93.14
2018-12-24T05:29:52.419Z,93.08
2018-12-24T05:30:52.406Z,93.56
2018-12-24T05:31:52.397Z,94.02
2018-12-24T05:32:52.384Z,94.12
2018-12-24T05:33:52.375Z,93.60
2018-12-24T05:34:52.366Z,93.81
2018-12-24T05:35:52.363Z,93.46
2018-12-24T05:36:52.345Z,93.40
2018-12-24T05:37:52.333Z,92.97
2018-12-24T05:38:52.322Z,92.97
2018-12-24T05:39:52.311Z,92.87
2018-12-24T05:40:52.317Z,93.81
2018-12-24T05:41:52.291Z,93.60
2018-12-24T05:42:52.280Z,93.18
2018-12-24T05:43:52.270Z,93.81
2018-12-24T05:44:52.259Z,92.97
2018-12-24T05:45:52.249Z,92.56
2018-12-24T05:46:52.239Z,92.87
2018-12-24T05:47:52.230Z,92.87
2018-12-24T05:48:52.217Z,92.77
2018-12-24T05:49:52.205Z,92.25
2018-12-24T05:50:52.194Z,92.66
2018-12-24T05:51:52.186Z,92.87
2018-12-24T05:52:52.178Z,92.46
2018-12-24T05:53:52.167Z,92.87
2018-12-24T05:54:52.154Z,92.77
2018-12-24T05:55:52.141Z,94.02
2018-12-24T05:56:52.135Z,93.50
2018-12-24T05:57:52.125Z,93.50
2018-12-24T05:58:52.111Z,94.02
2018-12-24T05:59:52.102Z,94.43
2018-12-24T06:00:52.093Z,93.60
2018-12-24T06:01:52.081Z,94.69
2018-12-24T06:02:52.071Z,95.42
2018-12-24T06:03:52.059Z,95.83
2018-12-24T06:04:52.047Z,96.15
2018-12-24T06:05:52.036Z,96.25
2018-12-24T06:06:52.027Z,96.25
2018-12-24T06:07:52.022Z,96.46
2018-12-24T06:08:52.008Z,96.40
2018-12-24T06:09:51.996Z,96.15
2018-12-24T06:10:51.985Z,96.04
2018-12-24T06:11:51.977Z,94.58
2018-12-24T06:12:51.965Z,94.27
2018-12-24T06:13:57.913Z,93.65
2018-12-24T06:14:52.940Z,93.69
2018-12-24T06:15:51.930Z,93.65
2018-12-24T06:16:51.924Z,93.85
2018-12-24T06:17:51.910Z,94.48
2018-12-24T06:18:51.901Z,94.06
2018-12-24T06:19:51.890Z,93.85
2018-12-24T06:20:51.880Z,93.75
2018-12-24T06:21:51.869Z,93.79
2018-12-24T06:22:51.857Z,93.96
2018-12-24T06:23:51.846Z,93.59
2018-12-24T06:24:51.840Z,93.06
2018-12-24T06:25:51.826Z,92.85
2018-12-24T06:26:51.817Z,92.65
2018-12-24T06:27:51.879Z,92.96
2018-12-24T06:28:51.798Z,92.22
2018-12-24T06:29:51.784Z,91.39
2018-12-24T06:30:51.773Z,91.81
2018-12-24T06:31:51.766Z,91.50
2018-12-24T06:32:51.754Z,90.77
2018-12-24T06:33:51.744Z,89.41
2018-12-24T06:34:51.734Z,89.62
2018-12-24T06:35:51.724Z,89.41
2018-12-24T06:36:51.714Z,89.41
2018-12-24T06:37:51.701Z,89.20
2018-12-24T06:38:51.690Z,89.62
2018-12-24T06:39:51.677Z,88.78
2018-12-24T06:40:51.669Z,88.47
2018-12-24T06:41:51.657Z,89.20
2018-12-24T06:42:51.649Z,89.10
2018-12-24T06:43:51.638Z,88.47
2018-12-24T06:44:51.628Z,88.99
2018-12-24T06:45:51.617Z,89.56
2018-12-24T06:46:51.613Z,90.14
2018-12-24T06:47:51.595Z,89.56
2018-12-24T06:48:51.585Z,89.76
2018-12-24T06:49:51.574Z,90.18
2018-12-24T06:50:51.563Z,90.18
2018-12-24T06:51:51.551Z,88.57
2018-12-24T06:52:51.542Z,88.68
2018-12-24T06:53:51.531Z,89.93
2018-12-24T06:54:51.521Z,89.34
2018-12-24T06:55:51.510Z,89.87
2018-12-24T06:56:51.501Z,90.14
2018-12-24T06:57:51.488Z,90.14
2018-12-24T06:58:51.479Z,90.91
2018-12-24T06:59:51.468Z,90.50
2018-12-24T07:00:51.457Z,90.81
2018-12-24T07:01:51.449Z,91.02
2018-12-24T07:02:51.436Z,91.79
2018-12-24T07:03:51.426Z,92.47
2018-12-24T07:04:51.415Z,92.69
2018-12-24T07:05:51.407Z,92.94
2018-12-24T07:06:51.394Z,93.67
2018-12-24T07:07:51.384Z,94.19
2018-12-24T07:08:51.393Z,95.03
2018-12-24T07:09:51.362Z,95.59
2018-12-24T07:10:51.353Z,95.80
2018-12-24T07:11:51.340Z,96.33
2018-12-24T07:12:51.331Z,96.43
2018-12-24T07:13:51.417Z,96.22
2018-12-24T07:14:51.310Z,96.11
2018-12-24T07:15:51.299Z,95.70
2018-12-24T07:16:51.288Z,95.90
2018-12-24T07:17:51.279Z,95.17
2018-12-24T07:18:51.268Z,95.07
2018-12-24T07:19:51.257Z,94.34
2018-12-24T07:20:51.246Z,94.44
2018-12-24T07:21:51.237Z,93.71
2018-12-24T07:22:51.227Z,94.02
2018-12-24T07:23:51.216Z,93.92
2018-12-24T07:24:51.206Z,93.19
2018-12-24T07:25:51.196Z,92.66
2018-12-24T07:26:51.184Z,92.35
2018-12-24T07:27:51.171Z,91.94
2018-12-24T07:28:58.769Z,91.62
2018-12-24T07:29:52.152Z,91.58
2018-12-24T07:30:51.140Z,91.52
2018-12-24T07:31:51.134Z,90.22
2018-12-24T07:32:51.120Z,90.33
2018-12-24T07:33:51.110Z,90.85
2018-12-24T07:34:51.103Z,89.91
2018-12-24T07:35:51.089Z,89.59
2018-12-24T07:36:51.083Z,88.87
2018-12-24T07:37:51.074Z,89.18
2018-12-24T07:38:51.058Z,89.74
2018-12-24T07:39:51.048Z,88.65
2018-12-24T07:40:51.038Z,89.32
2018-12-24T07:41:51.057Z,89.91
2018-12-24T07:42:51.024Z,89.59
2018-12-24T07:43:51.014Z,89.59
2018-12-24T07:44:50.995Z,88.65
2018-12-24T07:45:50.986Z,88.45
2018-12-24T07:46:50.974Z,88.34
2018-12-24T07:47:50.962Z,86.99
2018-12-24T07:48:50.952Z,87.40
2018-12-24T07:49:50.941Z,87.51
2018-12-24T07:50:50.931Z,86.67
2018-12-24T07:51:50.920Z,85.83
2018-12-24T07:52:50.909Z,85.42
2018-12-24T07:53:50.899Z,86.77
2018-12-24T07:54:50.889Z,86.99
2018-12-24T07:55:50.884Z,87.40
2018-12-24T07:56:50.870Z,87.93
2018-12-24T07:57:50.857Z,87.30
2018-12-24T07:58:50.847Z,87.51
2018-12-24T07:59:50.865Z,86.99
2018-12-24T08:00:50.842Z,86.77
2018-12-24T08:01:50.815Z,87.09
2018-12-24T08:02:50.807Z,86.67
2018-12-24T08:03:50.820Z,87.30
2018-12-24T08:04:50.783Z,86.99
2018-12-24T08:05:50.775Z,87.93
2018-12-24T08:06:50.767Z,86.77
2018-12-24T08:07:50.750Z,87.30
2018-12-24T08:08:50.743Z,86.25
2018-12-24T08:09:50.730Z,85.52
2018-12-24T08:10:50.721Z,86.46
2018-12-24T08:11:50.716Z,86.57
2018-12-24T08:12:50.703Z,85.52
2018-12-24T08:13:50.693Z,85.52
2018-12-24T08:14:50.682Z,86.99
2018-12-24T08:15:50.669Z,86.77
2018-12-24T08:16:50.660Z,86.77
2018-12-24T08:17:50.649Z,85.31
2018-12-24T08:18:50.639Z,85.11
2018-12-24T08:19:50.626Z,86.25
2018-12-24T08:20:50.618Z,85.21
2018-12-24T08:21:50.608Z,84.79
2018-12-24T08:22:50.597Z,85.31
2018-12-24T08:23:50.587Z,85.35
2018-12-24T08:24:50.579Z,85.21
2018-12-24T08:25:50.569Z,84.10
2018-12-24T08:26:53.364Z,83.06
2018-12-24T08:27:50.541Z,82.74
2018-12-24T08:28:50.540Z,82.32
2018-12-24T08:29:50.522Z,82.64
2018-12-24T08:30:50.517Z,83.26
2018-12-24T08:31:50.511Z,83.54
2018-12-24T08:32:50.500Z,83.06
2018-12-24T08:33:50.479Z,83.37
2018-12-24T08:34:50.470Z,82.43
2018-12-24T08:35:50.483Z,82.64
2018-12-24T08:36:50.500Z,83.01
2018-12-24T08:37:50.444Z,81.59
2018-12-24T08:38:50.434Z,83.78
2018-12-24T08:39:50.809Z,83.44
2018-12-24T08:40:50.411Z,82.12
2018-12-24T08:41:50.404Z,81.49
2018-12-24T08:42:50.387Z,81.28
2018-12-24T08:43:50.379Z,82.84
2018-12-24T08:44:50.376Z,82.64
2018-12-24T08:45:50.355Z,82.74
2018-12-24T08:46:50.348Z,82.43
2018-12-24T08:47:50.335Z,83.37
2018-12-24T08:48:50.321Z,83.26
2018-12-24T08:49:50.316Z,82.64
2018-12-24T08:50:50.305Z,83.16
2018-12-24T08:51:50.293Z,83.47
2018-12-24T08:52:50.299Z,82.89
2018-12-24T08:53:50.301Z,83.51
2018-12-24T08:54:50.262Z,83.62
2018-12-24T08:55:50.363Z,82.99
2018-12-24T08:56:50.243Z,83.30
2018-12-24T08:57:50.224Z,83.30
2018-12-24T08:58:50.215Z,83.30
2018-12-24T08:59:50.208Z,83.93
2018-12-24T09:00:50.195Z,84.34
2018-12-24T09:01:50.184Z,84.14
2018-12-24T09:02:50.183Z,84.03
2018-12-24T09:03:50.321Z,84.83
2018-12-24T09:04:50.172Z,84.24
2018-12-24T09:05:50.152Z,84.77
2018-12-24T09:06:50.156Z,83.93
2018-12-24T09:07:50.143Z,84.24
2018-12-24T09:08:50.120Z,84.77
2018-12-24T09:09:50.119Z,84.97
2018-12-24T09:10:50.093Z,84.24
2018-12-24T09:11:50.079Z,83.51
2018-12-24T09:12:50.069Z,82.15
2018-12-24T09:13:50.058Z,83.30
2018-12-24T09:14:50.556Z,82.89
2018-12-24T09:15:50.036Z,82.89
2018-12-24T09:16:50.025Z,82.78
2018-12-24T09:17:50.019Z,83.20
2018-12-24T09:18:50.003Z,82.89
2018-12-24T09:19:49.993Z,83.13
2018-12-24T09:20:52.795Z,82.89
2018-12-24T09:21:49.976Z,83.62
2018-12-24T09:22:49.981Z,83.09
2018-12-24T09:23:49.955Z,84.24
2018-12-24T09:24:49.942Z,83.40
2018-12-24T09:25:49.932Z,83.40
2018-12-24T09:26:49.924Z,83.40
2018-12-24T09:27:49.911Z,83.72
2018-12-24T09:28:49.900Z,83.20
2018-12-24T09:29:49.893Z,83.30
2018-12-24T09:30:49.878Z,83.72
2018-12-24T09:31:49.870Z,84.14
2018-12-24T09:32:49.863Z,84.49
2018-12-24T09:33:49.847Z,83.30
2018-12-24T09:34:49.837Z,83.40
2018-12-24T09:35:49.829Z,83.20
2018-12-24T09:36:49.813Z,83.93
2018-12-24T09:37:49.815Z,84.24
2018-12-24T09:38:49.796Z,84.14
2018-12-24T09:39:49.791Z,84.14
2018-12-24T09:40:49.774Z,83.30
2018-12-24T09:41:49.778Z,82.99
2018-12-24T09:42:51.698Z,83.30
2018-12-24T09:43:49.743Z,83.51
2018-12-24T09:44:49.741Z,83.30
2018-12-24T09:45:49.774Z,83.83
2018-12-24T09:46:49.710Z,83.40
2018-12-24T09:47:49.707Z,82.67
2018-12-24T09:48:49.692Z,82.89
2018-12-24T09:49:49.678Z,82.36
2018-12-24T09:50:49.676Z,82.78
2018-12-24T09:51:49.658Z,82.36
2018-12-24T09:52:49.654Z,82.36
2018-12-24T09:53:49.637Z,82.67
2018-12-24T09:54:49.626Z,82.26
2018-12-24T09:55:49.633Z,82.36
2018-12-24T09:56:49.606Z,82.74
2018-12-24T09:57:49.596Z,82.43
2018-12-24T09:58:49.585Z,82.89
2018-12-24T09:59:49.577Z,82.32
2018-12-24T10:00:49.569Z,83.16
2018-12-24T10:01:49.555Z,82.95
2018-12-24T10:02:49.547Z,82.64
2018-12-24T10:03:49.533Z,82.22
2018-12-24T10:04:49.527Z,81.90
2018-12-24T10:05:49.511Z,82.74
2018-12-24T10:06:49.505Z,82.89
2018-12-24T10:07:49.490Z,82.84
2018-12-24T10:08:49.481Z,83.26
2018-12-24T10:09:49.469Z,84.10
2018-12-24T10:10:49.456Z,83.16
2018-12-24T10:11:49.450Z,83.47
2018-12-24T10:12:49.437Z,84.31
2018-12-24T10:13:49.426Z,83.58
2018-12-24T10:14:49.421Z,83.68
2018-12-24T10:15:49.405Z,83.47
2018-12-24T10:16:49.403Z,83.37
2018-12-24T10:17:49.389Z,82.74
2018-12-24T10:18:49.374Z,82.53
2018-12-24T10:19:49.366Z,81.18
2018-12-24T10:20:49.358Z,81.38
2018-12-24T10:21:49.341Z,82.64
2018-12-24T10:22:49.336Z,82.22
2018-12-24T10:23:49.325Z,82.64
2018-12-24T10:24:49.311Z,81.80
2018-12-24T10:25:49.301Z,82.22
2018-12-24T10:26:49.296Z,81.66
2018-12-24T10:27:49.291Z,80.96
2018-12-24T10:28:49.269Z,81.76
2018-12-24T10:29:49.255Z,80.82
2018-12-24T10:30:49.248Z,82.07
2018-12-24T10:31:49.236Z,81.03
2018-12-24T10:32:49.226Z,81.97
2018-12-24T10:33:49.218Z,81.03
2018-12-24T10:34:49.204Z,81.56
2018-12-24T10:35:49.194Z,80.93
2018-12-24T10:36:49.181Z,81.35
2018-12-24T10:37:49.215Z,81.24
2018-12-24T10:38:49.165Z,80.62
2018-12-24T10:39:49.155Z,81.45
2018-12-24T10:40:49.142Z,83.01
2018-12-24T10:41:49.133Z,82.39
2018-12-24T10:42:49.119Z,82.07
2018-12-24T10:43:49.110Z,80.86
2018-12-24T10:44:49.100Z,81.70
2018-12-24T10:45:49.089Z,82.43
2018-12-24T10:46:49.078Z,82.22
2018-12-24T10:47:49.068Z,82.29
2018-12-24T10:48:49.059Z,82.32
2018-12-24T10:49:49.049Z,82.95
2018-12-24T10:50:49.042Z,82.95
2018-12-24T10:51:49.026Z,82.64
2018-12-24T10:52:50.088Z,83.06
2018-12-24T10:53:49.008Z,82.81
2018-12-24T10:54:48.997Z,82.29
2018-12-24T10:55:48.983Z,82.29
2018-12-24T10:56:48.978Z,81.35
2018-12-24T10:57:48.962Z,81.76
2018-12-24T10:58:48.954Z,81.45
2018-12-24T10:59:48.942Z,82.39
2018-12-24T11:00:48.930Z,82.39
2018-12-24T11:01:48.929Z,81.66
2018-12-24T11:02:48.913Z,80.30
2018-12-24T11:03:48.906Z,81.35
2018-12-24T11:04:48.895Z,81.28
2018-12-24T11:05:48.876Z,82.32
2018-12-24T11:06:48.872Z,83.89
2018-12-24T11:07:48.881Z,84.20
2018-12-24T11:08:48.921Z,84.31
2018-12-24T11:09:48.834Z,85.56
2018-12-24T11:10:48.829Z,84.83
2018-12-24T11:11:48.815Z,85.04
2018-12-24T11:12:48.807Z,85.39
2018-12-24T11:13:48.795Z,86.08
2018-12-24T11:14:48.785Z,85.77
2018-12-24T11:15:48.783Z,85.25
2018-12-24T11:16:48.764Z,85.46
2018-12-24T11:17:48.753Z,85.18
2018-12-24T11:18:48.743Z,85.77
2018-12-24T11:19:48.730Z,84.62
2018-12-24T11:20:48.719Z,85.81
2018-12-24T11:21:48.712Z,85.14
2018-12-24T11:22:48.699Z,85.29
2018-12-24T11:23:48.688Z,83.58
2018-12-24T11:24:48.684Z,84.31
2018-12-24T11:25:48.668Z,83.89
2018-12-24T11:26:48.661Z,83.89
2018-12-24T11:27:48.649Z,83.89
2018-12-24T11:28:48.636Z,84.31
2018-12-24T11:29:48.625Z,83.78
2018-12-24T11:30:48.614Z,83.37
2018-12-24T11:31:48.605Z,84.24
2018-12-24T11:32:48.594Z,83.68
2018-12-24T11:33:48.600Z,84.34
2018-12-24T11:34:48.572Z,84.34
2018-12-24T11:35:48.563Z,84.87
2018-12-24T11:36:48.552Z,84.97
2018-12-24T11:37:48.540Z,85.60
2018-12-24T11:38:48.532Z,86.02
2018-12-24T11:39:48.518Z,85.81
2018-12-24T11:40:48.511Z,85.46
2018-12-24T11:41:48.499Z,84.66
2018-12-24T11:42:48.586Z,85.50
2018-12-24T11:43:48.482Z,84.77
2018-12-24T11:44:48.466Z,85.71
2018-12-24T11:45:48.457Z,85.18
2018-12-24T11:46:48.447Z,85.50
2018-12-24T11:47:48.438Z,85.18
2018-12-24T11:48:48.424Z,86.65
2018-12-24T11:49:48.419Z,88.53
2018-12-24T11:50:48.410Z,88.53
2018-12-24T11:51:48.393Z,88.64
2018-12-24T11:52:48.383Z,89.36
2018-12-24T11:53:48.377Z,89.58
2018-12-24T11:54:48.364Z,88.78
2018-12-24T11:55:48.355Z,89.51
2018-12-24T11:56:48.344Z,88.21
2018-12-24T11:57:48.331Z,87.38
2018-12-24T11:58:48.320Z,87.48
2018-12-24T11:59:48.310Z,87.17
2018-12-24T12:00:48.300Z,86.96
2018-12-24T12:01:48.288Z,86.65
2018-12-24T12:02:48.280Z,85.81
2018-12-24T12:03:48.266Z,85.29
2018-12-24T12:04:48.258Z,84.03
2018-12-24T12:05:48.247Z,84.24
2018-12-24T12:06:48.237Z,84.03
2018-12-24T12:07:48.231Z,84.20
2018-12-24T12:08:48.218Z,83.93
2018-12-24T12:09:48.205Z,83.30
2018-12-24T12:10:48.193Z,83.40
2018-12-24T12:11:48.182Z,82.12
2018-12-24T12:12:48.175Z,83.16
2018-12-24T12:13:48.166Z,82.22
2018-12-24T12:14:48.153Z,82.43
2018-12-24T12:15:48.143Z,82.32
2018-12-24T12:16:48.132Z,82.22
2018-12-24T12:17:48.121Z,81.90
2018-12-24T12:18:48.110Z,81.80
2018-12-24T12:19:48.099Z,82.22
2018-12-24T12:20:52.495Z,81.18
2018-12-24T12:21:48.078Z,81.18
2018-12-24T12:22:48.074Z,81.28
2018-12-24T12:23:48.061Z,81.07
2018-12-24T12:24:48.046Z,81.49
2018-12-24T12:25:48.037Z,81.13
2018-12-24T12:26:48.025Z,80.09
2018-12-24T12:27:48.015Z,80.82
2018-12-24T12:28:48.005Z,80.62
2018-12-24T12:29:47.993Z,80.51
2018-12-24T12:30:47.982Z,79.15
2018-12-24T12:31:47.971Z,79.57
2018-12-24T12:32:47.961Z,79.26
2018-12-24T12:33:47.953Z,79.36
2018-12-24T12:34:47.938Z,80.62
2018-12-24T12:35:47.930Z,79.15
2018-12-24T12:36:47.920Z,79.26
2018-12-24T12:37:47.909Z,79.78
2018-12-24T12:38:47.897Z,80.51
2018-12-24T12:39:47.892Z,80.09
2018-12-24T12:40:47.878Z,80.51
2018-12-24T12:41:47.867Z,80.20
2018-12-24T12:42:47.861Z,81.03
2018-12-24T12:43:47.849Z,80.72
2018-12-24T12:44:47.837Z,80.37
2018-12-24T12:45:51.355Z,79.33
2018-12-24T12:46:47.813Z,79.05
2018-12-24T12:47:47.802Z,78.59
2018-12-24T12:48:47.793Z,79.53
2018-12-24T12:49:47.784Z,79.01
2018-12-24T12:50:47.772Z,78.70
2018-12-24T12:51:47.763Z,79.11
2018-12-24T12:52:47.750Z,78.80